createdAt,value
2019-01-10T00:00:22.850Z,1.40
2019-01-10T00:02:51.561Z,1.40
2019-01-10T00:05:20.429Z,1.40
2019-01-10T00:07:48.934Z,1.40
2019-01-10T00:10:18.905Z,1.40
2019-01-10T00:12:47.714Z,1.40
2019-01-10T00:15:20.666Z,1.40
2019-01-10T00:17:50.458Z,1.40
2019-01-10T00:20:19.073Z,1.40
2019-01-10T00:22:47.597Z,1.40
2019-01-10T00:25:16.211Z,1.30
2019-01-10T00:27:44.736Z,1.30
2019-01-10T00:30:18.588Z,1.30
2019-01-10T00:32:47.499Z,1.30
2019-01-10T00:35:16.280Z,1.20
2019-01-10T00:37:44.976Z,1.20
2019-01-10T00:40:15.940Z,1.20
2019-01-10T00:42:49.560Z,1.20
2019-01-10T00:45:17.037Z,1.20
2019-01-10T00:47:46.086Z,1.10
2019-01-10T00:50:23.061Z,1.00
2019-01-10T00:52:51.936Z,1.00
2019-01-10T00:55:20.477Z,1.00
2019-01-10T00:57:49.182Z,1.00
2019-01-10T01:00:25.757Z,1.00
2019-01-10T01:02:54.369Z,0.90
2019-01-10T01:05:23.275Z,0.80
2019-01-10T01:07:52.273Z,0.80
2019-01-10T01:10:26.257Z,0.80
2019-01-10T01:12:58.726Z,0.80
2019-01-10T01:15:25.465Z,0.70
2019-01-10T01:17:53.978Z,0.70
2019-01-10T01:20:25.544Z,0.60
2019-01-10T01:22:54.048Z,0.60
2019-01-10T01:25:22.690Z,0.60
2019-01-10T01:27:51.194Z,0.50
2019-01-10T01:30:21.639Z,0.40
2019-01-10T01:32:50.191Z,0.40
2019-01-10T01:35:18.700Z,0.40
2019-01-10T01:37:47.636Z,0.30
2019-01-10T01:40:20.431Z,0.20
2019-01-10T01:42:49.087Z,0.30
2019-01-10T01:45:19.838Z,0.10
2019-01-10T01:47:48.510Z,0.10
2019-01-10T01:50:22.004Z,0.00
2019-01-10T01:52:50.624Z,0.00
2019-01-10T01:55:19.400Z,0.00
2019-01-10T01:57:48.100Z,0.00
2019-01-10T02:00:19.285Z,-0.10
2019-01-10T02:02:47.948Z,-0.10
2019-01-10T02:05:16.837Z,-0.20
2019-01-10T02:07:45.551Z,-0.10
2019-01-10T02:10:22.624Z,-0.10
2019-01-10T02:12:51.093Z,-0.10
2019-01-10T02:15:19.820Z,-0.30
2019-01-10T02:17:49.437Z,-0.20
2019-01-10T02:20:18.598Z,-0.20
2019-01-10T02:22:47.183Z,-0.30
2019-01-10T02:25:17.105Z,-0.30
2019-01-10T02:27:45.818Z,-1.00
2019-01-10T02:30:20.389Z,-0.40
2019-01-10T02:32:49.159Z,-0.40
2019-01-10T02:35:17.933Z,-0.30
2019-01-10T02:37:46.542Z,-0.30
2019-01-10T02:40:16.213Z,-0.30
2019-01-10T02:42:44.790Z,-0.30
2019-01-10T02:45:15.962Z,-0.30
2019-01-10T02:47:44.743Z,-0.30
2019-01-10T02:50:16.366Z,-0.30
2019-01-10T02:52:45.056Z,-0.30
2019-01-10T02:55:13.638Z,-0.30
2019-01-10T02:57:42.180Z,-0.30
2019-01-10T03:00:24.229Z,-0.40
2019-01-10T03:02:52.943Z,-0.40
2019-01-10T03:05:22.037Z,-0.40
2019-01-10T03:07:50.616Z,-0.40
2019-01-10T03:10:22.133Z,-0.50
2019-01-10T03:12:50.710Z,-0.50
2019-01-10T03:15:19.232Z,-0.50
2019-01-10T03:17:47.812Z,-0.50
2019-01-10T03:20:19.314Z,-0.50
2019-01-10T03:22:47.846Z,-0.40
2019-01-10T03:25:16.376Z,-0.50
2019-01-10T03:27:45.089Z,-0.50
2019-01-10T03:30:18.332Z,-0.50
2019-01-10T03:32:47.479Z,-0.60
2019-01-10T03:35:16.060Z,-0.60
2019-01-10T03:37:44.533Z,-0.60
2019-01-10T03:40:16.027Z,-0.70
2019-01-10T03:42:44.658Z,-0.60
2019-01-10T03:45:15.447Z,-0.70
2019-01-10T03:47:46.885Z,-0.70
2019-01-10T03:50:16.760Z,-0.60
2019-01-10T03:52:45.650Z,-0.60
2019-01-10T03:55:14.662Z,-0.60
2019-01-10T03:57:43.412Z,-0.60
2019-01-10T04:00:17.822Z,-0.60
2019-01-10T04:02:46.611Z,-0.70
2019-01-10T04:05:15.451Z,-0.60
2019-01-10T04:07:44.001Z,-0.70
2019-01-10T04:10:14.685Z,-0.70
2019-01-10T04:12:43.153Z,-0.70
2019-01-10T04:15:13.249Z,-0.70
2019-01-10T04:17:41.778Z,-0.70
2019-01-10T04:20:13.167Z,-0.80
2019-01-10T04:22:41.775Z,-0.70
2019-01-10T04:25:10.461Z,-0.70
2019-01-10T04:27:38.931Z,-0.70
2019-01-10T04:30:10.835Z,-0.70
2019-01-10T04:32:39.300Z,-0.70
2019-01-10T04:35:07.918Z,-0.60
2019-01-10T04:37:36.504Z,-0.60
2019-01-10T04:40:08.136Z,-0.60
2019-01-10T04:42:39.577Z,-0.70
2019-01-10T04:45:08.963Z,-0.70
2019-01-10T04:47:37.438Z,-0.70
2019-01-10T04:50:09.400Z,-0.70
2019-01-10T04:52:37.874Z,-0.70
2019-01-10T04:55:08.165Z,-0.80
2019-01-10T04:57:36.698Z,-0.80
2019-01-10T05:00:13.916Z,-0.70
2019-01-10T05:02:42.388Z,-0.70
2019-01-10T05:05:11.062Z,-0.70
2019-01-10T05:07:39.497Z,-0.70
2019-01-10T05:10:10.505Z,-0.70
2019-01-10T05:12:39.042Z,-0.60
2019-01-10T05:15:10.888Z,-0.60
2019-01-10T05:17:39.433Z,-0.60
2019-01-10T05:20:13.532Z,-0.60
2019-01-10T05:22:41.979Z,-0.70
2019-01-10T05:25:10.598Z,-0.70
2019-01-10T05:27:39.034Z,-0.80
2019-01-10T05:30:18.820Z,-0.80
2019-01-10T05:32:47.338Z,-0.80
2019-01-10T05:35:15.800Z,-0.80
2019-01-10T05:37:44.344Z,-0.80
2019-01-10T05:40:13.448Z,-0.70
2019-01-10T05:42:42.005Z,-0.70
2019-01-10T05:45:13.214Z,-0.70
2019-01-10T05:47:43.137Z,-0.80
2019-01-10T05:50:14.051Z,-0.80
2019-01-10T05:52:42.698Z,-0.80
2019-01-10T05:55:13.880Z,-0.80
2019-01-10T05:57:42.412Z,-0.80
2019-01-10T06:00:14.080Z,-0.80
2019-01-10T06:02:42.609Z,-0.80
2019-01-10T06:05:11.249Z,-0.90
2019-01-10T06:07:39.692Z,-0.90
2019-01-10T06:10:13.771Z,-0.90
2019-01-10T06:12:42.211Z,-0.90
2019-01-10T06:15:13.631Z,-1.00
2019-01-10T06:17:42.147Z,-1.00
2019-01-10T06:20:13.552Z,-1.00
2019-01-10T06:22:41.999Z,-1.00
2019-01-10T06:25:11.063Z,-0.90
2019-01-10T06:27:39.575Z,-0.90
2019-01-10T06:30:11.399Z,-0.90
2019-01-10T06:32:39.916Z,-0.90
2019-01-10T06:35:09.016Z,-0.80
2019-01-10T06:37:37.449Z,-0.90
2019-01-10T06:40:08.856Z,-0.90
2019-01-10T06:42:37.368Z,-0.90
2019-01-10T06:45:09.067Z,-0.90
2019-01-10T06:47:37.784Z,-0.90
2019-01-10T06:50:09.532Z,-0.90
2019-01-10T06:52:37.992Z,-1.00
2019-01-10T06:55:08.673Z,-0.90
2019-01-10T06:57:37.151Z,-0.90
2019-01-10T07:00:08.665Z,-0.90
2019-01-10T07:02:37.191Z,-0.90
2019-01-10T07:05:06.085Z,-0.90
2019-01-10T07:07:34.560Z,-0.90
2019-01-10T07:10:04.048Z,-1.00
2019-01-10T07:12:32.498Z,-0.90
2019-01-10T07:15:00.944Z,-0.90
2019-01-10T07:17:29.407Z,-0.90
2019-01-10T07:19:57.859Z,-0.90
2019-01-10T07:22:26.336Z,-0.90
2019-01-10T07:24:55.324Z,-0.80
2019-01-10T07:27:23.794Z,-0.90
2019-01-10T07:29:55.380Z,-0.90
2019-01-10T07:32:24.099Z,-0.80
2019-01-10T07:34:56.203Z,-0.80
2019-01-10T07:37:24.643Z,-0.80
2019-01-10T07:39:53.204Z,-0.80
2019-01-10T07:42:21.647Z,-0.80
2019-01-10T07:44:50.103Z,-0.80
2019-01-10T07:47:18.551Z,-0.70
2019-01-10T07:49:47.089Z,-0.70
2019-01-10T07:52:15.605Z,-0.80
2019-01-10T07:54:44.082Z,-0.70
2019-01-10T08:00:00.328Z,-0.60
2019-01-10T08:02:28.763Z,-0.60
2019-01-10T08:04:57.244Z,-0.60
2019-01-10T08:07:25.689Z,-0.60
2019-01-10T08:09:54.464Z,-0.60
2019-01-10T08:12:22.909Z,-0.60
2019-01-10T08:14:51.376Z,-0.60
2019-01-10T08:17:19.813Z,-0.60
2019-01-10T08:19:48.301Z,-0.60
2019-01-10T08:22:16.796Z,-0.60
2019-01-10T08:24:45.263Z,-0.60
2019-01-10T08:27:13.848Z,-0.60
2019-01-10T08:29:42.334Z,-0.60
2019-01-10T08:32:10.767Z,-0.50
2019-01-10T08:34:39.237Z,-0.50
2019-01-10T08:37:07.692Z,-0.40
2019-01-10T08:39:36.148Z,-0.30
2019-01-10T08:42:04.738Z,-0.30
2019-01-10T08:44:33.737Z,-0.30
2019-01-10T08:47:02.319Z,-0.30
2019-01-10T08:49:30.853Z,-0.20
2019-01-10T08:51:59.304Z,-0.20
2019-01-10T08:54:27.747Z,-0.20
2019-01-10T08:56:56.224Z,-0.10
2019-01-10T08:59:24.673Z,-0.10
2019-01-10T09:01:53.128Z,0.00
2019-01-10T09:04:21.656Z,0.00
2019-01-10T09:06:50.108Z,0.00
2019-01-10T09:09:18.720Z,0.00
2019-01-10T09:11:47.175Z,0.10
2019-01-10T09:14:15.607Z,0.10
2019-01-10T09:16:44.069Z,0.00
2019-01-10T09:19:12.575Z,0.10
2019-01-10T09:21:41.135Z,0.20
2019-01-10T09:24:09.572Z,0.20
2019-01-10T09:26:38.081Z,0.20
2019-01-10T09:29:06.621Z,0.20
2019-01-10T09:31:35.149Z,0.30
2019-01-10T09:34:03.588Z,0.30
2019-01-10T09:36:32.044Z,0.40
2019-01-10T09:39:00.475Z,0.40
2019-01-10T09:41:29.012Z,0.40
2019-01-10T09:43:57.644Z,0.40
2019-01-10T09:46:26.103Z,0.40
2019-01-10T09:48:54.603Z,0.40
2019-01-10T09:51:23.055Z,0.60
2019-01-10T09:53:51.501Z,0.60
2019-01-10T09:56:19.960Z,0.60
2019-01-10T09:58:48.397Z,0.60
2019-01-10T10:01:16.853Z,0.60
2019-01-10T10:03:45.339Z,0.60
2019-01-10T10:06:13.820Z,0.60
2019-01-10T10:08:42.268Z,0.60
2019-01-10T10:11:10.734Z,0.60
2019-01-10T10:13:39.469Z,0.70
2019-01-10T10:16:07.931Z,0.60
2019-01-10T10:18:36.377Z,0.70
2019-01-10T10:21:04.948Z,0.80
2019-01-10T10:23:33.409Z,0.70
2019-01-10T10:26:01.865Z,0.80
2019-01-10T10:28:30.299Z,0.80
2019-01-10T10:30:58.741Z,0.80
2019-01-10T10:33:27.200Z,0.90
2019-01-10T10:35:55.636Z,1.00
2019-01-10T10:38:24.493Z,1.00
2019-01-10T10:40:52.923Z,1.00
2019-01-10T10:43:21.379Z,1.00
2019-01-10T10:45:49.888Z,1.00
2019-01-10T10:48:18.353Z,1.10
2019-01-10T10:50:46.792Z,1.20
2019-01-10T10:53:15.257Z,1.30
2019-01-10T10:55:43.712Z,1.40
2019-01-10T10:58:12.172Z,1.40
2019-01-10T11:00:40.766Z,1.30
2019-01-10T11:03:09.219Z,1.40
2019-01-10T11:05:37.775Z,1.50
2019-01-10T11:08:06.324Z,1.60
2019-01-10T11:10:34.845Z,1.30
2019-01-10T11:13:03.307Z,1.30
2019-01-10T11:15:31.889Z,1.30
2019-01-10T11:18:00.342Z,1.40
2019-01-10T11:20:28.792Z,1.40
2019-01-10T11:22:57.231Z,1.40
2019-01-10T11:25:26.400Z,1.50
2019-01-10T11:27:54.916Z,1.50
2019-01-10T11:30:23.416Z,1.50
2019-01-10T11:32:53.706Z,1.40
2019-01-10T11:35:22.120Z,1.40
2019-01-10T11:37:50.560Z,1.40
2019-01-10T11:40:20.647Z,1.30
2019-01-10T11:42:49.525Z,1.40
2019-01-10T11:45:20.728Z,1.50
2019-01-10T11:47:49.506Z,1.50
2019-01-10T11:50:18.312Z,1.50
2019-01-10T11:52:46.925Z,1.70
2019-01-10T11:55:15.612Z,1.80
2019-01-10T11:57:44.814Z,1.90
2019-01-10T12:00:22.542Z,2.00
2019-01-10T12:02:51.072Z,1.90
2019-01-10T12:05:19.533Z,1.90
2019-01-10T12:07:47.968Z,1.90
2019-01-10T12:10:16.509Z,2.00
2019-01-10T12:12:45.441Z,1.90
2019-01-10T12:15:15.148Z,1.70
2019-01-10T12:17:43.763Z,1.90
2019-01-10T12:20:15.133Z,2.00
2019-01-10T12:22:43.909Z,2.00
2019-01-10T12:25:14.961Z,1.90
2019-01-10T12:27:43.649Z,2.10
2019-01-10T12:30:15.391Z,2.10
2019-01-10T12:32:43.972Z,2.10
2019-01-10T12:35:12.547Z,2.10
2019-01-10T12:37:40.998Z,2.30
2019-01-10T12:40:12.066Z,2.10
2019-01-10T12:42:40.696Z,2.20
2019-01-10T12:45:12.067Z,2.20
2019-01-10T12:47:40.665Z,2.40
2019-01-10T12:50:17.772Z,2.50
2019-01-10T12:52:46.709Z,2.60
2019-01-10T12:55:15.284Z,2.50
2019-01-10T12:57:44.031Z,2.40
2019-01-10T13:00:18.604Z,2.50
2019-01-10T13:02:47.067Z,2.50
2019-01-10T13:05:15.645Z,2.40
2019-01-10T13:07:44.165Z,2.70
2019-01-10T13:10:15.336Z,2.70
2019-01-10T13:12:43.868Z,2.80
2019-01-10T13:15:14.944Z,2.70
2019-01-10T13:17:43.498Z,2.60
2019-01-10T13:20:12.865Z,2.70
2019-01-10T13:22:41.496Z,2.60
2019-01-10T13:25:12.741Z,2.50
2019-01-10T13:27:41.196Z,2.50
2019-01-10T13:30:13.043Z,2.50
2019-01-10T13:32:41.501Z,2.50
2019-01-10T13:35:10.313Z,2.50
2019-01-10T13:37:38.776Z,2.60
2019-01-10T13:40:09.651Z,2.50
2019-01-10T13:42:38.190Z,2.50
2019-01-10T13:45:09.317Z,2.40
2019-01-10T13:47:39.236Z,2.50
2019-01-10T13:50:16.671Z,2.50
2019-01-10T13:52:45.457Z,2.50
2019-01-10T13:55:16.616Z,2.50
2019-01-10T13:57:45.477Z,2.50
2019-01-10T14:00:17.176Z,2.60
2019-01-10T14:02:45.760Z,2.60
2019-01-10T14:05:14.301Z,2.60
2019-01-10T14:07:42.873Z,2.70
2019-01-10T14:10:14.544Z,2.50
2019-01-10T14:12:43.120Z,2.40
2019-01-10T14:15:15.583Z,2.40
2019-01-10T14:17:44.121Z,2.50
2019-01-10T14:20:13.000Z,2.40
2019-01-10T14:22:41.445Z,2.40
2019-01-10T14:25:10.069Z,2.40
2019-01-10T14:27:38.639Z,2.50
2019-01-10T14:30:13.116Z,2.50
2019-01-10T14:32:41.554Z,2.30
2019-01-10T14:35:10.148Z,2.30
2019-01-10T14:37:38.584Z,2.30
2019-01-10T14:40:09.294Z,2.30
2019-01-10T14:42:37.720Z,2.30
2019-01-10T14:45:09.488Z,2.20
2019-01-10T14:47:38.056Z,2.10
2019-01-10T14:50:08.951Z,2.10
2019-01-10T14:52:37.627Z,2.10
2019-01-10T14:55:10.467Z,2.00
2019-01-10T14:57:39.149Z,2.00
2019-01-10T15:00:13.656Z,2.00
2019-01-10T15:02:42.343Z,2.00
2019-01-10T15:05:10.948Z,2.10
2019-01-10T15:07:39.379Z,2.00
2019-01-10T15:10:09.628Z,2.00
2019-01-10T15:12:38.137Z,2.00
2019-01-10T15:15:12.740Z,2.00
2019-01-10T15:17:41.677Z,2.00
2019-01-10T15:20:13.388Z,1.90
2019-01-10T15:22:41.834Z,1.90
2019-01-10T15:25:10.592Z,1.90
2019-01-10T15:27:39.302Z,1.90
2019-01-10T15:30:11.068Z,1.90
2019-01-10T15:32:40.150Z,1.80
2019-01-10T15:35:09.049Z,1.80
2019-01-10T15:37:37.929Z,1.70
2019-01-10T15:40:09.671Z,1.70
2019-01-10T15:42:38.189Z,1.60
2019-01-10T15:45:07.992Z,1.60
2019-01-10T15:47:36.693Z,1.70
2019-01-10T15:50:08.292Z,1.60
2019-01-10T15:52:38.223Z,1.60
2019-01-10T15:55:09.541Z,1.50
2019-01-10T15:57:41.580Z,1.40
2019-01-10T16:00:13.388Z,1.30
2019-01-10T16:02:42.329Z,1.30
2019-01-10T16:05:11.100Z,1.30
2019-01-10T16:07:39.678Z,1.40
2019-01-10T16:10:11.307Z,1.40
2019-01-10T16:12:39.997Z,1.40
2019-01-10T16:15:17.598Z,1.50
2019-01-10T16:17:47.112Z,1.50
2019-01-10T16:20:16.181Z,1.40
2019-01-10T16:22:44.778Z,1.30
2019-01-10T16:25:16.309Z,1.30
2019-01-10T16:27:45.190Z,1.30
2019-01-10T16:30:19.407Z,1.40
2019-01-10T16:32:48.014Z,1.40
2019-01-10T16:35:16.516Z,1.40
2019-01-10T16:37:45.169Z,1.40
2019-01-10T16:40:16.104Z,1.30
2019-01-10T16:42:44.747Z,1.30
2019-01-10T16:45:16.640Z,1.30
2019-01-10T16:47:45.250Z,1.30
2019-01-10T16:50:15.170Z,1.30
2019-01-10T16:52:43.709Z,1.30
2019-01-10T16:55:13.941Z,1.30
2019-01-10T16:57:42.625Z,1.30
2019-01-10T17:00:16.946Z,1.30
2019-01-10T17:02:45.489Z,1.30
2019-01-10T17:05:13.920Z,1.30
2019-01-10T17:07:42.463Z,1.30
2019-01-10T17:10:11.956Z,1.30
2019-01-10T17:12:40.492Z,1.40
2019-01-10T17:15:11.574Z,1.50
2019-01-10T17:17:40.139Z,1.50
2019-01-10T17:20:17.148Z,1.50
2019-01-10T17:22:46.270Z,1.50
2019-01-10T17:25:15.643Z,1.50
2019-01-10T17:27:44.683Z,1.50
2019-01-10T17:30:21.856Z,1.50
2019-01-10T17:32:51.127Z,1.50
2019-01-10T17:35:22.689Z,1.50
2019-01-10T17:37:51.191Z,1.50
2019-01-10T17:40:21.595Z,1.50
2019-01-10T17:42:50.390Z,1.50
2019-01-10T17:45:21.878Z,1.50
2019-01-10T17:47:51.735Z,1.50
2019-01-10T17:50:21.266Z,1.50
2019-01-10T17:52:49.928Z,1.50
2019-01-10T17:55:18.571Z,1.50
2019-01-10T17:57:47.106Z,1.50
2019-01-10T18:00:18.417Z,1.50
2019-01-10T18:02:47.006Z,1.50
2019-01-10T18:05:15.905Z,1.50
2019-01-10T18:07:44.333Z,1.50
2019-01-10T18:10:15.806Z,1.50
2019-01-10T18:12:44.237Z,1.60
2019-01-10T18:15:15.498Z,1.60
2019-01-10T18:17:50.101Z,1.60
2019-01-10T18:20:17.236Z,1.60
2019-01-10T18:22:45.801Z,1.50
2019-01-10T18:25:15.468Z,1.60
2019-01-10T18:27:43.910Z,1.50
2019-01-10T18:30:15.456Z,1.60
2019-01-10T18:32:44.084Z,1.60
2019-01-10T18:35:13.413Z,1.70
2019-01-10T18:37:41.943Z,1.70
2019-01-10T18:40:13.065Z,1.70
2019-01-10T18:42:41.592Z,1.70
2019-01-10T18:45:13.271Z,1.70
2019-01-10T18:47:42.056Z,1.60
2019-01-10T18:50:13.850Z,1.60
2019-01-10T18:52:42.377Z,1.60
2019-01-10T18:55:10.884Z,1.60
2019-01-10T18:57:39.340Z,1.60
2019-01-10T19:00:13.596Z,1.60
2019-01-10T19:02:42.124Z,1.60
2019-01-10T19:05:11.048Z,1.60
2019-01-10T19:15:00.233Z,1.70
2019-01-10T19:17:28.881Z,1.60
2019-01-10T19:19:57.321Z,1.60
2019-01-10T19:22:25.804Z,1.60
2019-01-10T19:24:54.248Z,1.60
2019-01-10T19:27:22.692Z,1.60
2019-01-10T19:29:51.148Z,1.60
2019-01-10T19:32:19.591Z,1.60
2019-01-10T19:34:48.049Z,1.70
2019-01-10T19:37:16.484Z,1.60
2019-01-10T19:39:44.949Z,1.50
2019-01-10T19:42:13.523Z,1.50
2019-01-10T19:44:42.615Z,1.40
2019-01-10T19:47:11.055Z,1.40
2019-01-10T19:49:39.727Z,1.40
2019-01-10T19:52:08.248Z,1.40
2019-01-10T19:54:36.702Z,1.40
2019-01-10T19:57:05.206Z,1.30
2019-01-10T19:59:35.309Z,1.30
2019-01-10T20:02:03.845Z,1.20
2019-01-10T20:04:32.304Z,1.20
2019-01-10T20:07:00.744Z,1.10
2019-01-10T20:09:30.075Z,1.00
2019-01-10T20:11:58.707Z,0.90
2019-01-10T20:14:28.528Z,0.80
2019-01-10T20:16:56.983Z,0.80
2019-01-10T20:19:25.462Z,0.70
2019-01-10T20:21:54.312Z,0.70
2019-01-10T20:24:22.767Z,0.60
2019-01-10T20:26:52.280Z,0.50
2019-01-10T20:29:22.217Z,0.40
2019-01-10T20:31:50.977Z,0.30
2019-01-10T20:34:19.443Z,0.30
2019-01-10T20:36:47.883Z,0.30
2019-01-10T20:39:16.371Z,0.30
2019-01-10T20:41:44.804Z,0.30
2019-01-10T20:44:13.248Z,0.30
2019-01-10T20:46:41.845Z,0.20
2019-01-10T20:49:10.360Z,0.20
2019-01-10T20:51:38.924Z,0.10
2019-01-10T20:54:07.430Z,0.10
2019-01-10T20:56:35.951Z,0.20
2019-01-10T20:59:05.325Z,0.20
2019-01-10T21:01:33.785Z,0.20
2019-01-10T21:04:02.233Z,0.10
2019-01-10T21:06:30.784Z,0.10
2019-01-10T21:08:59.232Z,0.30
2019-01-10T21:11:27.687Z,0.30
2019-01-10T21:13:56.127Z,0.40
2019-01-10T21:16:24.587Z,0.40
2019-01-10T21:18:53.281Z,0.50
2019-01-10T21:21:21.812Z,0.60
2019-01-10T21:23:50.329Z,0.60
2019-01-10T21:26:18.785Z,0.60
2019-01-10T21:28:47.565Z,0.60
2019-01-10T21:31:16.098Z,0.60
2019-01-10T21:33:44.536Z,0.70
2019-01-10T21:36:13.015Z,0.70
2019-01-10T21:38:41.486Z,0.80
2019-01-10T21:41:10.282Z,0.80
2019-01-10T21:43:38.732Z,0.80
2019-01-10T21:46:07.457Z,0.70
2019-01-10T21:48:35.964Z,0.70
2019-01-10T21:51:04.468Z,0.70
2019-01-10T21:53:33.305Z,0.70
2019-01-10T21:56:01.817Z,0.70
2019-01-10T21:58:30.848Z,0.70
2019-01-10T22:00:59.360Z,0.60
2019-01-10T22:03:27.829Z,0.60
2019-01-10T22:05:56.279Z,0.60
2019-01-10T22:08:24.832Z,0.60
2019-01-10T22:10:53.343Z,0.70
2019-01-10T22:13:21.806Z,0.70
2019-01-10T22:15:50.244Z,0.70
2019-01-10T22:18:18.699Z,0.70
2019-01-10T22:20:47.281Z,0.80
2019-01-10T22:23:15.738Z,0.80
2019-01-10T22:25:45.264Z,0.80
2019-01-10T22:28:13.905Z,0.80
2019-01-10T22:30:44.064Z,0.80
2019-01-10T22:33:12.589Z,0.80
2019-01-10T22:35:41.041Z,0.90
2019-01-10T22:38:09.505Z,0.80
2019-01-10T22:40:37.969Z,1.90
2019-01-10T22:43:06.413Z,0.80
2019-01-10T22:45:34.944Z,0.70
2019-01-10T22:48:03.413Z,0.70
2019-01-10T22:50:31.935Z,0.70
2019-01-10T22:53:00.403Z,0.60
2019-01-10T22:55:28.928Z,0.70
2019-01-10T22:57:57.427Z,0.70
2019-01-10T23:00:51.428Z,0.70
2019-01-10T23:03:20.143Z,0.70
2019-01-10T23:05:48.753Z,0.70
2019-01-10T23:08:17.195Z,0.70
2019-01-10T23:10:45.809Z,0.80
2019-01-10T23:13:14.357Z,0.80
2019-01-10T23:15:42.799Z,0.70
2019-01-10T23:18:11.380Z,0.80
2019-01-10T23:20:39.848Z,0.80
2019-01-10T23:23:12.890Z,0.80
2019-01-10T23:25:41.496Z,0.80
2019-01-10T23:28:10.889Z,0.70
2019-01-10T23:30:46.801Z,0.70
2019-01-10T23:33:15.888Z,0.70
2019-01-10T23:35:44.339Z,0.70
2019-01-10T23:38:12.777Z,0.60
2019-01-10T23:40:41.233Z,0.60
2019-01-10T23:43:09.749Z,0.60
2019-01-10T23:45:38.213Z,0.60
2019-01-10T23:48:06.716Z,0.60
2019-01-10T23:50:35.181Z,0.60
2019-01-10T23:53:03.623Z,0.70
2019-01-10T23:55:32.092Z,0.70
2019-01-10T23:58:00.536Z,0.60
